首页
METAR-TAF:

METAR-TAF

机场 :

Comox, 不列颠哥伦比亚, 加拿大

纬度: 49-43N, 经度: 124-54W, 海拔: 24米

当前天气观测

该预报发布于38分钟前的13:00 UTC
风速4节,风向西转西北
温度 15°C
湿度 72%
气压 1014 hPa
能見度: 32.2公里
多云层高于25000英尺

METAR: CYQQ 211300Z 30004KT 20SM BKN250 15/10 A2995 RMK CI6 SLP142

时间: 06:38 (13:38 UTC)

预报

该预报发布于1小时和59分钟前的11:39 UTC
预报有效从21日的 12点(UTC)到 22日的 12点(UTC)
风速10节,风向西北
能見度: 10公里
多云层高于25000英尺
从 21日的 1400点(UTC)
风速10节,风向北转西北
能見度: 10公里
少量云层高于25000英尺
从 21日的 2100点(UTC)
风速8节,风向
能見度: 10公里
散云层高于20000英尺
多云层高于25000英尺
从 22日的 0300点(UTC)
风速5节,风向北转西北
能見度: 10公里
天空无云

TAF: CYQQ 211139Z 2112/2212 32010KT P6SM BKN250 FM211400 34010KT P6SM FEW250 FM212100 01008KT P6SM SCT200 BKN250 FM220300 34005KT P6SM SKC RMK NXT FCST BY 211800Z

超过4000个机场的气象观测和天气预报(METAR&TAF报告)。

可查询的气象台以黄色和红色小点在地图上表示。

将鼠标移到小点上方,可查看气象台名称。

然后点击查看天气观测和预报。

如需切换地图:点击带黑十字的绿色按钮放大地图;点击带横线的绿色按钮缩小地图;或者点击绿色箭头查看邻近地区的地图。


METAR-TAF: